createdAt,value
2022-11-05T18:19:02.492Z,60.91
2022-11-05T18:20:03.516Z,58.70
2022-11-05T18:21:03.465Z,58.90
2022-11-05T18:22:03.500Z,59.00
2022-11-05T18:23:03.546Z,58.64
2022-11-05T18:24:03.527Z,57.61
2022-11-05T18:25:03.569Z,57.51
2022-11-05T18:26:03.506Z,57.14
2022-11-05T18:27:03.498Z,57.97
2022-11-05T18:28:03.484Z,58.37
2022-11-05T18:29:03.471Z,58.57
2022-11-05T18:30:03.451Z,58.90
2022-11-05T18:31:03.614Z,59.00
2022-11-05T18:34:00.748Z,58.47
2022-11-05T18:35:00.702Z,58.57
2022-11-05T18:36:00.457Z,58.67
2022-11-05T18:37:00.631Z,58.90
2022-11-05T18:38:00.448Z,59.10
2022-11-05T18:39:01.124Z,59.10
2022-11-05T18:40:00.426Z,59.20
2022-11-05T18:41:00.410Z,59.30
2022-11-05T18:42:00.396Z,59.20
2022-11-05T18:43:00.539Z,58.97
2022-11-05T18:44:00.383Z,58.14
2022-11-05T18:45:00.379Z,58.14
2022-11-05T18:46:00.380Z,58.37
2022-11-05T18:47:00.362Z,58.47
2022-11-05T18:48:00.338Z,58.67
2022-11-05T18:49:00.468Z,58.97
2022-11-05T18:50:00.316Z,59.08
2022-11-05T18:51:01.986Z,59.20
2022-11-05T18:52:00.292Z,59.00
2022-11-05T18:53:00.296Z,59.38
2022-11-05T18:54:00.302Z,58.37
2022-11-05T18:55:00.318Z,58.27
2022-11-05T18:56:00.270Z,58.24
2022-11-05T18:57:00.250Z,58.17
2022-11-05T18:58:00.284Z,58.24
2022-11-05T18:59:30.083Z,57.94
2022-11-05T19:00:00.313Z,59.14
2022-11-05T19:01:06.284Z,58.84
2022-11-05T19:02:00.393Z,58.24
2022-11-05T19:03:00.444Z,58.14
2022-11-05T19:04:00.180Z,58.11
2022-11-05T19:05:27.526Z,57.81
2022-11-05T19:06:00.230Z,58.31
2022-11-05T19:07:04.779Z,57.21
2022-11-05T19:08:00.190Z,57.31
2022-11-05T19:09:00.185Z,57.41
2022-11-05T19:10:00.166Z,57.31
2022-11-05T19:11:00.153Z,57.21
2022-11-05T19:12:00.164Z,57.21
2022-11-05T19:13:00.265Z,58.22
2022-11-05T19:14:00.120Z,58.72
2022-11-05T19:15:02.591Z,58.22
2022-11-05T19:16:00.104Z,57.81
2022-11-05T19:17:00.109Z,58.92
2022-11-05T19:18:00.097Z,59.22
2022-11-05T19:19:00.135Z,58.51
2022-11-05T19:20:00.076Z,57.91
2022-11-05T19:21:00.064Z,58.22
2022-11-05T19:22:00.057Z,58.11
2022-11-05T19:23:00.032Z,59.62
2022-11-05T19:24:00.030Z,60.12
2022-11-05T19:25:00.088Z,60.72
2022-11-05T19:26:00.020Z,61.13
2022-11-05T19:27:00.000Z,61.22
2022-11-05T19:27:59.986Z,61.19
2022-11-05T19:28:59.970Z,61.19
2022-11-05T19:30:00.028Z,61.19
2022-11-05T19:31:00.103Z,61.33
2022-11-05T19:31:59.969Z,61.10
2022-11-05T19:32:59.931Z,61.02
2022-11-05T19:33:59.925Z,61.02
2022-11-05T19:34:59.932Z,60.72
2022-11-05T19:35:59.903Z,61.00
2022-11-05T19:37:00.014Z,61.10
2022-11-05T19:37:59.906Z,60.89
2022-11-05T19:38:59.871Z,60.80
2022-11-05T19:39:59.863Z,60.69
2022-11-05T19:40:59.852Z,60.60
2022-11-05T19:42:04.126Z,60.39
2022-11-05T19:42:59.847Z,60.29
2022-11-05T19:43:59.819Z,60.19
2022-11-05T19:45:16.738Z,61.00
2022-11-05T19:45:59.793Z,60.19
2022-11-05T19:46:59.791Z,60.10
2022-11-05T19:47:59.766Z,60.10
2022-11-05T19:48:59.805Z,60.29
2022-11-05T19:49:59.751Z,60.32
2022-11-05T19:50:59.746Z,60.42
2022-11-05T19:51:59.731Z,60.52
2022-11-05T19:52:59.770Z,60.65
2022-11-05T19:53:59.713Z,60.85
2022-11-05T19:54:59.731Z,60.96
2022-11-05T19:55:59.690Z,60.96
2022-11-05T19:56:59.685Z,61.05
2022-11-05T19:57:59.688Z,61.05
2022-11-05T19:58:59.666Z,61.05
2022-11-05T19:59:59.659Z,61.15
2022-11-05T20:00:59.700Z,61.18
2022-11-05T20:01:59.747Z,61.18
2022-11-05T20:02:59.792Z,61.18
2022-11-05T20:03:59.708Z,61.18
2022-11-05T20:04:59.602Z,61.29
2022-11-05T20:05:59.583Z,61.29
2022-11-05T20:06:59.596Z,61.18
2022-11-05T20:07:59.567Z,61.29
2022-11-05T20:09:20.622Z,61.29
2022-11-05T20:09:59.552Z,61.18
2022-11-05T20:10:59.538Z,61.18
2022-11-05T20:11:59.525Z,61.18
2022-11-05T20:12:59.565Z,61.18
2022-11-05T20:13:59.502Z,61.18
2022-11-05T20:14:59.499Z,61.69
2022-11-05T20:15:59.483Z,61.38
2022-11-05T20:16:59.477Z,61.38
2022-11-05T20:17:59.468Z,61.18
2022-11-05T20:18:59.636Z,61.18
2022-11-05T20:19:59.438Z,61.18
2022-11-05T20:20:59.436Z,61.18
2022-11-05T20:21:59.432Z,61.18
2022-11-05T20:22:59.410Z,61.18
2022-11-05T20:23:59.396Z,61.18
2022-11-05T20:24:59.535Z,61.29
2022-11-05T20:25:59.375Z,61.18
2022-11-05T20:26:59.371Z,61.29
2022-11-05T20:27:59.357Z,61.29
2022-11-05T20:28:59.355Z,61.18
2022-11-05T20:29:59.344Z,61.18
2022-11-05T20:30:59.370Z,61.18
2022-11-05T20:31:59.313Z,61.18
2022-11-05T20:32:59.307Z,61.18
2022-11-05T20:33:59.297Z,61.18
2022-11-05T20:34:59.289Z,61.18
2022-11-05T20:35:59.270Z,61.18
2022-11-05T20:36:59.405Z,61.08
2022-11-05T20:37:59.248Z,61.38
2022-11-05T20:38:59.245Z,61.38
2022-11-05T20:39:59.231Z,61.38
2022-11-05T20:40:59.224Z,61.29
2022-11-05T20:41:59.211Z,61.18
2022-11-05T20:42:59.239Z,61.29
2022-11-05T20:43:59.190Z,61.58
2022-11-05T20:44:59.137Z,61.38
2022-11-05T20:45:59.167Z,61.18
2022-11-05T20:46:59.169Z,60.98
2022-11-05T20:47:59.150Z,60.98
2022-11-05T20:48:59.177Z,60.98
2022-11-05T20:49:59.129Z,60.98
2022-11-05T20:50:59.126Z,60.98
2022-11-05T20:51:59.111Z,60.98
2022-11-05T20:52:59.111Z,61.01
2022-11-05T20:53:59.088Z,61.01
2022-11-05T20:54:59.231Z,61.11
2022-11-05T20:56:02.419Z,61.11
2022-11-05T20:56:59.064Z,61.21
2022-11-05T20:57:59.042Z,61.08
2022-11-05T20:58:59.048Z,60.98
2022-11-05T20:59:59.021Z,61.01
2022-11-05T21:00:59.220Z,60.78
2022-11-05T21:01:59.158Z,60.88
2022-11-05T21:02:59.208Z,60.88
2022-11-05T21:03:58.985Z,60.88
2022-11-05T21:04:58.975Z,61.01
2022-11-05T21:05:58.963Z,60.91
2022-11-05T21:06:59.072Z,61.01
2022-11-05T21:07:58.937Z,61.01
2022-11-05T21:08:58.931Z,60.91
2022-11-05T21:11:17.977Z,61.58
2022-11-05T21:12:19.093Z,59.58
2022-11-05T21:13:18.873Z,57.94
2022-11-05T21:14:18.894Z,57.44
2022-11-05T21:15:18.854Z,57.21
2022-11-05T21:16:18.963Z,57.01
2022-11-05T21:17:18.836Z,56.88
2022-11-05T21:18:19.150Z,56.68
2022-11-05T21:19:18.808Z,56.48
2022-11-05T21:20:18.801Z,56.35
2022-11-05T21:21:18.793Z,56.15
2022-11-05T21:22:18.791Z,56.05
2022-11-05T21:23:18.766Z,55.85
2022-11-05T21:24:18.852Z,55.75
2022-11-05T21:25:18.747Z,55.65
2022-11-05T21:26:18.738Z,55.55
2022-11-05T21:27:18.728Z,55.43
2022-11-05T21:28:18.728Z,55.43
2022-11-05T21:29:18.703Z,55.32
2022-11-05T21:30:18.929Z,55.22
2022-11-05T21:31:18.737Z,55.02
2022-11-05T21:32:18.730Z,54.93
2022-11-05T21:33:18.715Z,54.93
2022-11-05T21:34:18.709Z,54.93
2022-11-05T21:35:18.697Z,54.82
2022-11-05T21:36:18.868Z,54.72
2022-11-05T21:37:18.673Z,54.62
2022-11-05T21:38:18.669Z,54.52
2022-11-05T21:39:18.657Z,54.52
2022-11-05T21:40:18.647Z,54.43
2022-11-05T21:41:18.631Z,54.32
2022-11-05T21:42:18.846Z,54.32
2022-11-05T21:43:18.607Z,54.22
2022-11-05T21:44:18.602Z,54.12
2022-11-05T21:45:18.595Z,54.12
2022-11-05T21:46:18.583Z,54.12
2022-11-05T21:47:18.570Z,54.02
2022-11-05T21:48:18.619Z,54.02
2022-11-05T21:49:18.547Z,54.02
2022-11-05T21:50:21.942Z,53.92
2022-11-05T21:51:18.525Z,53.92
2022-11-05T21:52:18.520Z,53.82
2022-11-05T21:53:18.502Z,53.82
2022-11-05T21:54:18.570Z,53.82
2022-11-05T21:55:18.481Z,53.82
2022-11-05T21:56:18.474Z,53.82
2022-11-05T21:57:18.458Z,53.72
2022-11-05T21:58:18.453Z,53.72
2022-11-05T21:59:18.433Z,53.72
2022-11-05T22:00:18.515Z,53.72
2022-11-05T22:01:18.522Z,53.72
2022-11-05T22:02:18.546Z,53.62
2022-11-05T22:03:18.397Z,53.62
2022-11-05T22:04:18.388Z,53.62
2022-11-05T22:05:18.388Z,53.62
2022-11-05T22:06:18.404Z,53.62
2022-11-05T22:07:18.351Z,53.62
2022-11-05T22:08:18.346Z,53.62
2022-11-05T22:09:18.338Z,53.62
2022-11-05T22:10:18.326Z,53.52
2022-11-05T22:11:18.311Z,53.52
2022-11-05T22:12:18.438Z,53.52
2022-11-05T22:13:18.292Z,53.52
2022-11-05T22:14:18.289Z,53.52
2022-11-05T22:15:18.266Z,53.52
2022-11-05T22:16:18.266Z,53.52
2022-11-05T22:17:18.246Z,53.42
2022-11-05T22:18:18.272Z,53.42
2022-11-05T22:19:18.220Z,53.42
2022-11-05T22:20:18.217Z,53.42
2022-11-05T22:21:18.210Z,53.42
2022-11-05T22:22:18.199Z,53.42
2022-11-05T22:23:18.186Z,53.42
2022-11-05T22:24:18.329Z,53.42
2022-11-05T22:25:18.166Z,53.42
2022-11-05T22:26:18.153Z,53.42
2022-11-05T22:27:18.141Z,53.32
2022-11-05T22:28:18.137Z,53.32
2022-11-05T22:29:18.119Z,53.32
2022-11-05T22:30:18.256Z,53.32
2022-11-05T22:31:18.097Z,53.32
2022-11-05T22:32:18.093Z,53.32
2022-11-05T22:33:18.075Z,53.32
2022-11-05T22:34:18.075Z,53.32
2022-11-05T22:35:18.056Z,53.32
2022-11-05T22:36:18.206Z,53.32
2022-11-05T22:37:18.035Z,53.32
2022-11-05T22:38:18.033Z,53.32
2022-11-05T22:39:18.016Z,53.32
2022-11-05T22:40:18.010Z,53.32
2022-11-05T22:41:17.994Z,53.32
2022-11-05T22:42:18.083Z,53.32
2022-11-05T22:43:17.974Z,53.32
2022-11-05T22:44:17.970Z,53.22
2022-11-05T22:45:17.949Z,53.22
2022-11-05T22:46:17.948Z,53.22
2022-11-05T22:47:17.928Z,53.32
2022-11-05T22:48:18.077Z,53.32
2022-11-05T22:49:17.904Z,53.22
2022-11-05T22:50:17.904Z,53.22
2022-11-05T22:51:17.884Z,53.22
2022-11-05T22:52:17.878Z,53.22
2022-11-05T22:53:17.864Z,53.22
2022-11-05T22:54:17.885Z,53.22
2022-11-05T22:55:17.848Z,53.22
2022-11-05T22:56:17.834Z,53.22
2022-11-05T22:57:17.822Z,53.22
2022-11-05T22:58:17.815Z,53.22
2022-11-05T22:59:17.801Z,53.22
2022-11-05T23:00:17.957Z,53.22
2022-11-05T23:01:17.872Z,53.22
2022-11-05T23:02:17.906Z,53.22
2022-11-05T23:03:17.756Z,53.22
2022-11-05T23:04:17.745Z,53.22
2022-11-05T23:05:17.743Z,53.22
2022-11-05T23:06:18.687Z,53.22
2022-11-05T23:07:18.583Z,53.22
2022-11-05T23:08:17.707Z,53.22
2022-11-05T23:09:17.698Z,53.22
2022-11-05T23:10:17.686Z,53.12
2022-11-05T23:11:17.673Z,53.22
2022-11-05T23:12:17.831Z,53.22
2022-11-05T23:13:17.654Z,53.22
2022-11-05T23:14:17.639Z,53.25
2022-11-05T23:15:17.638Z,53.12
2022-11-05T23:16:17.622Z,53.22
2022-11-05T23:17:17.618Z,53.14
2022-11-05T23:18:18.552Z,53.25
2022-11-05T23:19:17.594Z,53.14
2022-11-05T23:20:17.574Z,53.14
2022-11-05T23:21:22.695Z,53.14
2022-11-05T23:22:17.562Z,53.14
2022-11-05T23:23:17.552Z,53.14
2022-11-05T23:24:17.692Z,53.14
2022-11-05T23:25:17.531Z,53.14
2022-11-05T23:26:17.514Z,53.14
2022-11-05T23:27:17.502Z,53.14
2022-11-05T23:28:17.511Z,53.14
2022-11-05T23:29:17.484Z,53.25
2022-11-05T23:30:17.505Z,53.14
2022-11-05T23:31:17.465Z,53.14
2022-11-05T23:32:17.450Z,53.14
2022-11-05T23:33:17.445Z,53.14
2022-11-05T23:34:17.434Z,53.14
2022-11-05T23:35:17.421Z,53.14
2022-11-05T23:36:17.429Z,53.14
2022-11-05T23:37:17.402Z,53.14
2022-11-05T23:38:17.390Z,53.14
2022-11-05T23:39:17.382Z,53.14
2022-11-05T23:40:17.365Z,53.14
2022-11-05T23:41:17.357Z,53.05
2022-11-05T23:42:17.481Z,53.14
2022-11-05T23:43:17.333Z,53.14
2022-11-05T23:44:17.320Z,53.14
2022-11-05T23:45:17.319Z,53.14
2022-11-05T23:46:17.302Z,53.14
2022-11-05T23:47:17.311Z,53.14
2022-11-05T23:48:17.439Z,53.05
2022-11-05T23:49:17.274Z,53.05
2022-11-05T23:50:17.255Z,53.05
2022-11-05T23:51:17.251Z,53.05
2022-11-05T23:52:17.239Z,53.05
2022-11-05T23:53:17.245Z,53.05
2022-11-05T23:54:17.251Z,53.05
2022-11-05T23:55:17.209Z,53.05
2022-11-05T23:56:17.194Z,53.05
2022-11-05T23:57:17.185Z,53.05
2022-11-05T23:58:17.175Z,53.05
2022-11-05T23:59:17.166Z,53.05
